Terminal Aerodrome Forecast
Issued by NWS

Home | Current Version | Previous Version | Text Only | Print | Product List | Glossary On
Versions: 1 2 3 4 5 6 7 8 9 10 11 12 13 14 15 16 17 18 19 20 21 22 23 24 25
000
FTUS46 KLOX 241100
TAFLAX
TAF
KLAX 241126Z 2412/2518 VRB05KT P6SM SCT250
     FM241600 06006KT P6SM SCT250
     FM242100 28010KT P6SM SKC
     FM250500 VRB05KT P6SM SKC=

USA.gov is the U.S. government's official web portal to all federal, state and local government web resources and services.